createdAt,value
2022-10-29T00:01:51.731Z,18.83
2022-10-29T00:04:40.848Z,16.20
2022-10-29T00:07:29.996Z,18.08
2022-10-29T00:10:20.618Z,22.70
2022-10-29T00:13:09.679Z,20.33
2022-10-29T00:15:58.471Z,18.77
2022-10-29T00:18:48.000Z,15.45
2022-10-29T00:21:38.316Z,17.23
2022-10-29T00:24:28.387Z,15.82
2022-10-29T00:27:18.952Z,17.10
2022-10-29T00:30:08.762Z,18.95
2022-10-29T00:32:58.324Z,20.02
2022-10-29T00:35:57.333Z,20.50
2022-10-29T00:38:46.892Z,19.98
2022-10-29T00:41:36.142Z,24.52
2022-10-29T00:44:33.069Z,19.52
2022-10-29T00:47:26.747Z,13.75
2022-10-29T00:50:16.989Z,21.02
2022-10-29T00:53:06.632Z,23.02
2022-10-29T00:55:56.251Z,16.83
2022-10-29T00:58:46.375Z,21.83
2022-10-29T01:01:37.202Z,16.90
2022-10-29T01:04:26.859Z,16.63
2022-10-29T01:07:16.434Z,20.55
2022-10-29T01:10:05.878Z,16.30
2022-10-29T01:13:10.401Z,20.90
2022-10-29T01:16:07.339Z,15.85
2022-10-29T01:19:06.550Z,18.35
2022-10-29T01:22:00.916Z,21.88
2022-10-29T01:25:27.582Z,16.60
2022-10-29T01:28:32.600Z,20.90
2022-10-29T01:31:32.877Z,21.15
2022-10-29T01:34:27.251Z,15.30
2022-10-29T06:07:27.769Z,14.50
2022-10-29T06:10:16.948Z,19.20
2022-10-29T06:13:13.106Z,16.42
2022-10-29T06:16:02.749Z,19.13
2022-10-29T06:18:52.158Z,18.20
2022-10-29T06:21:41.510Z,16.42
2022-10-29T06:24:32.154Z,17.67
2022-10-29T06:27:20.778Z,20.88
2022-10-29T06:30:11.292Z,21.45
2022-10-29T06:33:01.061Z,18.38
2022-10-29T06:35:50.654Z,20.20
2022-10-29T06:38:39.680Z,14.60
2022-10-29T06:41:30.363Z,21.85
2022-10-29T06:44:19.618Z,19.30
2022-10-29T06:47:08.518Z,19.55
2022-10-29T06:49:57.844Z,15.75
2022-10-29T06:52:55.050Z,16.65
2022-10-29T06:55:43.936Z,18.02
2022-10-29T06:58:34.663Z,19.92
2022-10-29T07:01:27.722Z,11.75
2022-10-29T07:04:21.267Z,17.50
2022-10-29T07:07:10.533Z,19.45
2022-10-29T07:10:00.703Z,16.33
2022-10-29T07:12:49.989Z,17.55
2022-10-29T07:15:40.755Z,15.32
2022-10-29T07:18:31.126Z,17.35
2022-10-29T07:21:20.304Z,14.75
2022-10-29T07:24:09.712Z,16.02
2022-10-29T07:26:58.861Z,14.00
2022-10-29T07:29:48.842Z,13.43
2022-10-29T07:32:39.341Z,11.63
2022-10-29T07:35:28.574Z,17.73
2022-10-29T07:38:17.725Z,16.20
2022-10-29T07:41:06.746Z,14.30
2022-10-29T07:43:55.846Z,11.50
2022-10-29T07:46:44.655Z,13.75
2022-10-29T07:49:35.299Z,11.13
2022-10-29T07:52:24.024Z,10.23
2022-10-29T07:55:13.055Z,16.30
2022-10-29T07:58:03.329Z,13.10
2022-10-29T08:00:52.642Z,11.68
2022-10-29T08:03:42.034Z,15.02
2022-10-29T08:06:32.983Z,13.13
2022-10-29T08:09:22.133Z,14.40
2022-10-29T08:12:12.238Z,11.27
2022-10-29T08:15:01.444Z,11.77
2022-10-29T08:17:51.534Z,11.43
2022-10-29T08:20:40.908Z,13.73
2022-10-29T08:23:31.511Z,13.70
2022-10-29T08:26:22.425Z,14.18
2022-10-29T08:29:12.548Z,12.45
2022-10-29T08:32:01.587Z,19.95
2022-10-29T08:34:50.776Z,34.20
2022-10-29T08:37:43.889Z,16.63
2022-10-29T08:40:44.014Z,14.48
2022-10-29T08:44:17.687Z,23.75
2022-10-29T08:47:15.052Z,16.75
2022-10-29T08:50:11.438Z,13.40
2022-10-29T08:53:22.353Z,18.95
2022-10-29T08:56:17.862Z,15.82
2022-10-29T08:59:10.306Z,18.88
2022-10-29T09:01:59.758Z,21.00
2022-10-29T09:04:49.419Z,18.38
2022-10-29T09:08:01.239Z,15.27
2022-10-29T09:10:56.229Z,19.83
2022-10-29T09:13:57.742Z,20.50
2022-10-29T09:16:53.906Z,19.58
2022-10-29T09:19:56.828Z,15.70
2022-10-29T09:22:52.907Z,14.50
2022-10-29T09:25:52.510Z,22.90
2022-10-29T09:28:57.966Z,18.02
2022-10-29T09:31:49.359Z,17.73
2022-10-29T09:34:42.458Z,20.05
2022-10-29T09:37:42.137Z,22.45
2022-10-29T09:40:35.322Z,24.15
2022-10-29T09:43:36.163Z,23.50
2022-10-29T09:46:36.941Z,30.90
2022-10-29T09:49:39.992Z,25.50
2022-10-29T09:52:32.856Z,23.60
2022-10-29T09:55:25.949Z,31.40
2022-10-29T09:58:20.888Z,28.58
2022-10-29T10:01:11.017Z,29.83
2022-10-29T10:04:12.729Z,27.23
2022-10-29T10:07:06.495Z,27.33
2022-10-29T10:09:58.175Z,30.52
2022-10-29T10:12:49.368Z,24.98
2022-10-29T10:15:40.106Z,30.17
2022-10-29T10:18:40.289Z,31.90
2022-10-29T10:21:33.054Z,32.25
2022-10-29T10:24:32.579Z,33.00
2022-10-29T10:27:30.470Z,30.25
2022-10-29T10:30:24.271Z,29.17
2022-10-29T10:36:18.029Z,29.85
2022-10-29T10:39:24.675Z,33.08
2022-10-29T10:42:20.537Z,36.05
2022-10-29T10:45:16.901Z,28.08
2022-10-29T10:48:11.273Z,32.67
2022-10-29T10:51:21.799Z,27.77
2022-10-29T10:54:28.119Z,29.75
2022-10-29T10:57:23.947Z,26.77
2022-10-29T11:00:20.128Z,31.20
2022-10-29T11:03:17.607Z,25.70
2022-10-29T11:06:11.681Z,32.38
2022-10-29T11:09:05.183Z,31.40
2022-10-29T11:12:02.228Z,25.80
2022-10-29T11:14:55.532Z,36.90
2022-10-29T11:17:54.146Z,21.95
2022-10-29T11:20:47.679Z,30.58
2022-10-29T11:23:39.794Z,24.40
2022-10-29T11:26:34.703Z,26.30
2022-10-29T11:29:37.030Z,21.70
2022-10-29T11:32:31.661Z,28.27
2022-10-29T11:35:25.775Z,25.10
2022-10-29T11:38:20.317Z,25.02
2022-10-29T11:41:23.813Z,20.00
2022-10-29T11:44:15.266Z,24.95
2022-10-29T11:47:24.906Z,27.95
2022-10-29T11:50:23.871Z,22.33
2022-10-29T11:53:29.388Z,19.23
2022-10-29T11:56:27.641Z,24.45
2022-10-29T11:59:21.073Z,25.30
2022-10-29T12:02:20.319Z,26.85
